createdAt,value
2024-03-10T00:00:39.496Z,23.93
2024-03-10T00:01:39.499Z,23.90
2024-03-10T00:02:39.564Z,23.94
2024-03-10T00:03:39.603Z,23.92
2024-03-10T00:04:39.728Z,23.93
2024-03-10T00:05:39.726Z,23.93
2024-03-10T00:06:39.833Z,23.94
2024-03-10T00:07:39.837Z,23.96
2024-03-10T00:08:39.934Z,23.95
2024-03-10T00:09:39.980Z,23.97
2024-03-10T00:10:40.058Z,23.97
2024-03-10T00:11:40.163Z,23.92
2024-03-10T00:12:40.170Z,23.99
2024-03-10T00:13:40.237Z,23.95
2024-03-10T00:14:40.288Z,23.98
2024-03-10T00:15:40.363Z,23.99
2024-03-10T00:16:40.444Z,23.98
2024-03-10T00:17:40.547Z,24.00
2024-03-10T00:18:40.582Z,24.02
2024-03-10T00:19:40.649Z,23.97
2024-03-10T00:20:40.659Z,24.00
2024-03-10T00:21:40.746Z,23.91
2024-03-10T00:22:40.815Z,23.94
2024-03-10T00:23:40.937Z,23.98
2024-03-10T00:24:40.854Z,23.95
2024-03-10T00:25:40.982Z,24.00
2024-03-10T00:26:41.032Z,24.00
2024-03-10T00:27:41.086Z,24.05
2024-03-10T00:28:41.150Z,24.00
2024-03-10T00:29:41.201Z,24.00
2024-03-10T00:30:41.260Z,23.98
2024-03-10T00:31:41.341Z,24.02
2024-03-10T00:32:41.474Z,24.01
2024-03-10T00:33:41.449Z,24.02
2024-03-10T00:34:41.504Z,24.04
2024-03-10T00:35:41.565Z,24.05
2024-03-10T00:36:41.616Z,24.09
2024-03-10T00:37:41.680Z,24.05
2024-03-10T00:38:41.705Z,24.08
2024-03-10T00:39:41.758Z,24.03
2024-03-10T00:40:41.870Z,24.02
2024-03-10T00:41:41.834Z,24.04
2024-03-10T00:42:41.913Z,24.02
2024-03-10T00:43:42.025Z,24.02
2024-03-10T00:44:42.027Z,24.05
2024-03-10T00:45:42.084Z,24.08
2024-03-10T00:46:42.203Z,24.05
2024-03-10T00:47:42.297Z,24.09
2024-03-10T00:48:42.260Z,24.08
2024-03-10T00:49:42.375Z,24.08
2024-03-10T00:50:42.459Z,24.11
2024-03-10T00:51:42.448Z,24.12
2024-03-10T00:52:42.727Z,24.11
2024-03-10T00:53:42.542Z,24.06
2024-03-10T00:54:42.617Z,24.09
2024-03-10T00:55:42.687Z,24.09
2024-03-10T00:56:42.741Z,24.12
2024-03-10T00:57:42.773Z,24.09
2024-03-10T00:58:42.942Z,24.06
2024-03-10T00:59:42.895Z,24.05
2024-03-10T01:00:42.966Z,24.09
2024-03-10T01:01:43.068Z,24.15
2024-03-10T01:02:43.072Z,24.09
2024-03-10T01:03:43.131Z,24.12
2024-03-10T01:04:43.241Z,24.08
2024-03-10T01:05:43.234Z,24.15
2024-03-10T01:06:44.866Z,24.11
2024-03-10T01:07:43.406Z,24.13
2024-03-10T01:08:43.363Z,24.12
2024-03-10T01:09:43.330Z,24.12
2024-03-10T01:10:43.366Z,24.12
2024-03-10T01:11:43.474Z,24.12
2024-03-10T01:12:43.298Z,24.08
2024-03-10T01:13:43.301Z,24.13
2024-03-10T01:14:43.301Z,24.10
2024-03-10T01:15:43.312Z,24.13
2024-03-10T01:16:43.477Z,24.15
2024-03-10T01:17:43.399Z,24.10
2024-03-10T01:18:43.353Z,24.17
2024-03-10T01:19:43.365Z,24.16
2024-03-10T01:20:43.323Z,24.17
2024-03-10T01:21:43.356Z,24.14
2024-03-10T01:22:43.345Z,24.13
2024-03-10T01:23:43.316Z,24.13
2024-03-10T01:24:43.304Z,24.15
2024-03-10T01:25:43.409Z,24.13
2024-03-10T01:26:43.326Z,24.14
2024-03-10T01:27:43.292Z,24.11
2024-03-10T01:28:43.396Z,24.17
2024-03-10T01:29:43.364Z,24.19
2024-03-10T01:30:43.299Z,24.17
2024-03-10T01:31:43.338Z,24.21
2024-03-10T01:32:43.447Z,24.16
2024-03-10T01:33:43.322Z,24.16
2024-03-10T01:34:43.383Z,24.17
2024-03-10T01:35:43.354Z,24.20
2024-03-10T01:36:43.354Z,24.17
2024-03-10T01:37:43.433Z,24.20
2024-03-10T01:38:43.417Z,24.19
2024-03-10T01:39:43.429Z,24.17
2024-03-10T01:40:43.477Z,24.21
2024-03-10T01:41:43.554Z,24.24
2024-03-10T01:42:43.593Z,24.21
2024-03-10T01:43:43.687Z,24.16
2024-03-10T01:44:43.760Z,24.20
2024-03-10T01:45:43.826Z,24.22
2024-03-10T01:46:43.972Z,24.25
2024-03-10T01:47:43.993Z,24.24
2024-03-10T01:48:44.016Z,24.21
2024-03-10T01:49:44.133Z,24.20
2024-03-10T01:50:44.100Z,24.21
2024-03-10T01:51:44.209Z,24.21
2024-03-10T01:52:44.300Z,24.21
2024-03-10T01:53:44.335Z,24.21
2024-03-10T01:54:44.423Z,24.20
2024-03-10T01:55:44.518Z,24.20
2024-03-10T01:56:44.562Z,24.19
2024-03-10T01:57:44.585Z,24.23
2024-03-10T01:58:44.691Z,24.20
2024-03-10T01:59:44.672Z,24.24
2024-03-10T02:00:44.763Z,24.21
2024-03-10T02:01:44.859Z,24.20
2024-03-10T02:02:45.379Z,24.27
2024-03-10T02:03:44.982Z,24.22
2024-03-10T02:04:44.987Z,24.24
2024-03-10T02:05:45.142Z,24.24
2024-03-10T02:06:45.180Z,24.22
2024-03-10T02:07:45.223Z,24.24
2024-03-10T02:08:45.275Z,24.26
2024-03-10T02:09:45.324Z,24.25
2024-03-10T02:10:45.498Z,24.22
2024-03-10T02:11:45.626Z,24.21
2024-03-10T02:12:45.515Z,24.24
2024-03-10T02:13:45.612Z,24.31
2024-03-10T02:14:45.652Z,24.24
2024-03-10T02:15:45.718Z,24.18
2024-03-10T02:16:45.813Z,24.27
2024-03-10T02:17:45.826Z,24.21
2024-03-10T02:18:45.881Z,24.26
2024-03-10T02:19:45.985Z,24.24
2024-03-10T02:20:45.988Z,24.25
2024-03-10T02:21:46.054Z,24.27
2024-03-10T02:22:46.171Z,24.17
2024-03-10T02:23:46.170Z,24.22
2024-03-10T02:24:46.221Z,24.22
2024-03-10T02:25:46.312Z,24.24
2024-03-10T02:26:46.339Z,24.22
2024-03-10T02:27:46.409Z,24.21
2024-03-10T02:28:46.452Z,24.26
2024-03-10T02:29:46.507Z,24.21
2024-03-10T02:30:46.523Z,24.26
2024-03-10T02:31:46.725Z,24.22
2024-03-10T02:32:46.712Z,24.28
2024-03-10T02:33:46.709Z,24.22
2024-03-10T02:34:46.824Z,24.25
2024-03-10T02:35:46.936Z,24.25
2024-03-10T02:36:46.993Z,24.28
2024-03-10T02:37:47.031Z,24.16
2024-03-10T02:38:47.037Z,24.21
2024-03-10T02:39:47.129Z,24.21
2024-03-10T02:40:47.286Z,24.22
2024-03-10T02:41:47.261Z,24.24
2024-03-10T02:42:47.401Z,24.21
2024-03-10T02:43:47.477Z,24.22
2024-03-10T02:44:47.491Z,24.26
2024-03-10T02:45:47.504Z,24.23
2024-03-10T02:46:47.587Z,24.26
2024-03-10T02:47:47.723Z,24.24
2024-03-10T02:48:47.734Z,24.29
2024-03-10T02:49:47.849Z,24.29
2024-03-10T02:50:47.812Z,24.28
2024-03-10T02:51:47.889Z,24.25
2024-03-10T02:52:47.982Z,24.32
2024-03-10T02:53:48.046Z,24.21
2024-03-10T02:54:48.049Z,24.22
2024-03-10T02:55:48.236Z,24.21
2024-03-10T02:56:48.184Z,24.26
2024-03-10T02:57:48.230Z,24.22
2024-03-10T02:58:48.388Z,24.24
2024-03-10T02:59:48.352Z,24.29
2024-03-10T03:00:48.406Z,24.33
2024-03-10T03:01:48.449Z,24.29
2024-03-10T03:02:48.505Z,24.26
2024-03-10T03:03:48.538Z,24.32
2024-03-10T03:04:48.677Z,24.26
2024-03-10T03:05:48.686Z,24.33
2024-03-10T03:06:48.764Z,24.30
2024-03-10T03:07:48.884Z,24.29
2024-03-10T03:08:48.866Z,24.30
2024-03-10T03:09:48.985Z,24.29
2024-03-10T03:10:49.076Z,24.29
2024-03-10T03:11:49.062Z,24.29
2024-03-10T03:12:49.165Z,24.32
2024-03-10T03:13:49.261Z,24.31
2024-03-10T03:14:49.245Z,24.30
2024-03-10T03:15:49.301Z,24.29
2024-03-10T03:16:49.480Z,24.30
2024-03-10T03:17:49.449Z,24.29
2024-03-10T03:18:49.498Z,24.26
2024-03-10T03:19:49.743Z,24.28
2024-03-10T03:20:49.637Z,24.33
2024-03-10T03:21:49.666Z,24.29
2024-03-10T03:22:49.833Z,24.33
2024-03-10T03:23:49.817Z,24.33
2024-03-10T03:24:49.855Z,24.33
2024-03-10T03:25:49.886Z,24.33
2024-03-10T03:26:50.030Z,24.39
2024-03-10T03:27:50.104Z,24.35
2024-03-10T03:28:50.080Z,24.38
2024-03-10T03:29:50.090Z,24.30
2024-03-10T03:30:50.177Z,24.29
2024-03-10T03:31:50.207Z,24.30
2024-03-10T03:32:50.285Z,24.29
2024-03-10T03:33:50.403Z,24.35
2024-03-10T03:34:50.438Z,24.36
2024-03-10T03:35:50.491Z,24.36
2024-03-10T03:36:50.568Z,24.34
2024-03-10T03:37:50.720Z,24.40
2024-03-10T03:38:50.746Z,24.36
2024-03-10T03:39:50.773Z,24.37
2024-03-10T03:40:50.932Z,24.39
2024-03-10T03:41:50.883Z,24.40
2024-03-10T03:42:50.966Z,24.39
2024-03-10T03:43:51.151Z,24.39
2024-03-10T03:44:51.258Z,24.32
2024-03-10T03:45:51.164Z,24.40
2024-03-10T03:46:51.247Z,24.43
2024-03-10T03:47:51.288Z,24.39
2024-03-10T03:48:51.341Z,24.33
2024-03-10T03:49:51.429Z,24.32
2024-03-10T03:50:51.575Z,24.39
2024-03-10T03:51:51.526Z,24.35
2024-03-10T03:52:51.696Z,24.35
2024-03-10T03:53:51.714Z,24.33
2024-03-10T03:54:51.689Z,24.40
2024-03-10T03:55:51.794Z,24.37
2024-03-10T03:56:51.810Z,24.40
2024-03-10T03:57:51.934Z,24.33
2024-03-10T03:58:51.919Z,24.39
2024-03-10T03:59:51.987Z,24.37
2024-03-10T04:00:52.105Z,24.40
2024-03-10T04:01:52.166Z,24.33
2024-03-10T04:02:52.151Z,24.34
2024-03-10T04:03:52.227Z,24.33
2024-03-10T04:04:52.321Z,24.39
2024-03-10T04:05:52.473Z,24.44
2024-03-10T04:06:52.472Z,24.37
2024-03-10T04:07:52.612Z,24.37
2024-03-10T04:08:54.653Z,24.39
2024-03-10T04:09:52.575Z,24.37
2024-03-10T04:10:52.633Z,24.37
2024-03-10T04:11:52.603Z,24.36
2024-03-10T04:12:52.561Z,24.35
2024-03-10T04:13:52.639Z,24.37
2024-03-10T04:14:52.577Z,24.39
2024-03-10T04:15:52.563Z,24.36
2024-03-10T04:16:52.576Z,24.36
2024-03-10T04:17:52.740Z,24.39
2024-03-10T04:18:52.593Z,24.33
2024-03-10T04:19:52.573Z,24.34
2024-03-10T04:20:52.648Z,24.30
2024-03-10T04:21:52.612Z,24.30
2024-03-10T04:22:52.613Z,24.32
2024-03-10T04:23:52.605Z,24.32
2024-03-10T04:24:52.638Z,24.36
2024-03-10T04:25:52.627Z,24.29
2024-03-10T04:26:52.588Z,24.33
2024-03-10T04:27:52.593Z,24.33
2024-03-10T04:28:52.587Z,24.37
2024-03-10T04:29:52.587Z,24.29
2024-03-10T04:30:52.576Z,24.35
2024-03-10T04:31:59.887Z,24.40
2024-03-10T04:33:00.002Z,24.40
2024-03-10T04:33:59.868Z,24.40
2024-03-10T04:34:59.938Z,24.41
2024-03-10T04:35:59.920Z,24.41
2024-03-10T04:36:59.912Z,24.40
2024-03-10T04:37:59.950Z,24.34
2024-03-10T04:38:59.880Z,24.37
2024-03-10T04:39:59.901Z,24.34
2024-03-10T04:40:59.917Z,24.38
2024-03-10T04:41:59.899Z,24.31
2024-03-10T04:42:59.914Z,24.30
2024-03-10T04:43:59.937Z,24.38
2024-03-10T04:44:59.917Z,24.35
2024-03-10T04:45:59.880Z,24.35
2024-03-10T04:46:59.910Z,24.33
2024-03-10T04:47:59.952Z,24.34
2024-03-10T04:48:59.882Z,24.33
2024-03-10T04:49:59.925Z,24.37
2024-03-10T04:50:59.886Z,24.30
2024-03-10T04:51:59.858Z,24.28
2024-03-10T04:52:59.915Z,24.30
2024-03-10T04:53:59.904Z,24.37
2024-03-10T04:54:59.962Z,24.34
2024-03-10T04:55:59.909Z,24.35
2024-03-10T04:56:59.854Z,24.33
2024-03-10T04:57:59.882Z,24.33
2024-03-10T04:58:59.890Z,24.37
2024-03-10T04:59:59.913Z,24.34
2024-03-10T05:01:00.022Z,24.38
2024-03-10T05:01:59.953Z,24.28
2024-03-10T05:02:59.953Z,24.35
2024-03-10T05:03:59.924Z,24.35
2024-03-10T05:04:59.975Z,24.33
2024-03-10T05:05:59.911Z,24.35
2024-03-10T05:06:59.949Z,24.34
2024-03-10T05:07:59.940Z,24.33
2024-03-10T05:08:59.904Z,24.30
2024-03-10T05:09:59.928Z,24.30
2024-03-10T05:10:59.946Z,24.33
2024-03-10T05:11:59.956Z,24.33
2024-03-10T05:12:59.884Z,24.35
2024-03-10T05:13:59.898Z,24.33
2024-03-10T05:14:59.922Z,24.34
2024-03-10T05:15:59.924Z,24.37
2024-03-10T05:16:59.965Z,24.37
2024-03-10T05:17:59.977Z,24.30
2024-03-10T05:18:59.991Z,24.31
2024-03-10T05:20:00.068Z,24.34
2024-03-10T05:21:00.055Z,24.33
2024-03-10T05:22:00.118Z,24.33
2024-03-10T05:23:00.139Z,24.37
2024-03-10T05:24:00.179Z,24.33
2024-03-10T05:25:00.220Z,24.34
2024-03-10T05:26:00.259Z,24.38
2024-03-10T05:27:00.229Z,24.31
2024-03-10T05:28:00.289Z,24.34
2024-03-10T05:29:00.408Z,24.38
2024-03-10T05:30:00.511Z,24.38
2024-03-10T05:31:00.451Z,24.45
2024-03-10T05:32:00.550Z,24.35
2024-03-10T05:33:00.548Z,24.38
2024-03-10T05:34:00.899Z,24.37
2024-03-10T05:35:00.639Z,24.35
2024-03-10T05:36:00.612Z,24.35
2024-03-10T05:37:00.647Z,24.38
2024-03-10T05:38:00.715Z,24.31
2024-03-10T05:39:00.731Z,24.34
2024-03-10T05:40:00.803Z,24.35
2024-03-10T05:41:00.857Z,24.30
2024-03-10T05:42:00.869Z,24.32
2024-03-10T05:43:00.931Z,24.37
2024-03-10T05:44:01.009Z,24.31
2024-03-10T05:45:01.051Z,24.34
2024-03-10T05:46:01.055Z,24.35
2024-03-10T05:47:03.032Z,24.34
2024-03-10T05:48:01.170Z,24.35
2024-03-10T05:49:01.117Z,24.30
2024-03-10T05:50:01.229Z,24.39
2024-03-10T05:51:01.178Z,24.34
2024-03-10T05:52:01.240Z,24.39
2024-03-10T05:53:01.251Z,24.39
2024-03-10T05:54:01.184Z,24.25
2024-03-10T05:55:01.197Z,24.30
2024-03-10T05:56:01.242Z,24.35
2024-03-10T05:57:01.280Z,24.39
2024-03-10T05:58:01.271Z,24.37
2024-03-10T05:59:01.280Z,24.34
2024-03-10T06:00:01.304Z,24.34
2024-03-10T06:01:01.411Z,24.39
2024-03-10T06:02:01.442Z,24.38
2024-03-10T06:03:01.414Z,24.37
2024-03-10T06:04:01.472Z,24.37
2024-03-10T06:05:01.530Z,24.35
2024-03-10T06:06:01.500Z,24.37
2024-03-10T06:07:01.533Z,24.35
2024-03-10T06:08:01.599Z,24.28
2024-03-10T06:09:01.632Z,24.30
2024-03-10T06:10:01.577Z,24.31
2024-03-10T06:11:01.832Z,24.28
2024-03-10T06:12:01.890Z,24.27
2024-03-10T06:13:01.803Z,24.32
2024-03-10T06:14:02.095Z,24.37
2024-03-10T06:15:01.888Z,24.37
2024-03-10T06:16:01.924Z,24.31
2024-03-10T06:17:02.035Z,24.40
2024-03-10T06:18:02.077Z,24.34
2024-03-10T06:19:02.099Z,24.30
2024-03-10T06:20:02.277Z,24.27
2024-03-10T06:21:02.109Z,24.32
2024-03-10T06:22:02.162Z,24.30
2024-03-10T06:23:02.204Z,24.30
2024-03-10T06:24:02.592Z,24.33
2024-03-10T06:25:02.305Z,24.27
2024-03-10T06:26:02.368Z,24.27
2024-03-10T06:27:02.619Z,24.30
2024-03-10T06:28:02.468Z,24.26
2024-03-10T06:29:02.595Z,24.26
2024-03-10T06:30:02.585Z,24.23
2024-03-10T06:31:02.619Z,24.21
2024-03-10T06:32:03.054Z,24.25
2024-03-10T06:33:02.734Z,24.15
2024-03-10T06:34:02.816Z,24.17
2024-03-10T06:35:02.893Z,24.18
2024-03-10T06:36:02.935Z,24.16
2024-03-10T06:37:03.073Z,24.18
2024-03-10T06:38:03.121Z,24.19
2024-03-10T06:39:03.150Z,24.12
2024-03-10T06:40:03.211Z,24.15
2024-03-10T06:41:03.289Z,24.17
2024-03-10T06:42:03.348Z,24.12
2024-03-10T06:43:03.423Z,24.12
2024-03-10T06:44:03.545Z,24.16
2024-03-10T06:45:03.538Z,24.14
2024-03-10T06:46:03.653Z,24.05
2024-03-10T06:47:03.714Z,24.15
2024-03-10T06:48:03.756Z,24.14
2024-03-10T06:49:03.796Z,24.13
2024-03-10T06:50:03.931Z,24.08
2024-03-10T06:51:03.894Z,24.04
2024-03-10T06:52:03.925Z,24.02
2024-03-10T06:53:04.031Z,23.97
2024-03-10T06:54:04.070Z,23.70
2024-03-10T06:55:04.125Z,23.56
2024-03-10T06:56:04.255Z,23.46
2024-03-10T06:57:04.255Z,23.46
2024-03-10T06:58:04.317Z,23.59
2024-03-10T06:59:04.340Z,23.60
2024-03-10T07:00:04.322Z,23.58
2024-03-10T07:01:04.358Z,23.58
2024-03-10T07:02:04.486Z,23.61
2024-03-10T07:03:04.616Z,23.58
2024-03-10T07:04:04.507Z,23.62
2024-03-10T07:05:04.612Z,23.76
2024-03-10T07:06:04.595Z,23.61
2024-03-10T07:07:04.600Z,23.63
2024-03-10T07:08:04.722Z,23.63
2024-03-10T07:09:04.685Z,23.73
2024-03-10T07:10:04.737Z,23.68
2024-03-10T07:11:04.935Z,23.67
2024-03-10T07:12:04.973Z,23.73
2024-03-10T07:13:04.951Z,23.76
2024-03-10T07:14:04.985Z,23.69
2024-03-10T07:15:04.975Z,23.63
2024-03-10T07:16:05.046Z,23.58
2024-03-10T07:17:05.223Z,23.50
2024-03-10T07:18:05.124Z,23.14
2024-03-10T07:19:05.167Z,23.11
2024-03-10T07:20:05.270Z,23.09
2024-03-10T07:21:05.233Z,22.74
2024-03-10T07:22:05.274Z,22.60
2024-03-10T07:23:05.368Z,22.54
2024-03-10T07:24:05.333Z,22.29
2024-03-10T07:25:05.301Z,22.16
2024-03-10T07:26:05.364Z,22.04
2024-03-10T07:27:05.327Z,22.16
2024-03-10T07:28:05.367Z,21.98
2024-03-10T07:29:05.377Z,22.10
2024-03-10T07:30:05.389Z,21.96
2024-03-10T07:31:05.385Z,22.00
2024-03-10T07:32:05.485Z,22.22
2024-03-10T07:33:05.495Z,22.43
2024-03-10T07:34:05.514Z,22.22
2024-03-10T07:35:05.594Z,22.31
2024-03-10T07:36:05.629Z,22.41
2024-03-10T07:37:05.748Z,22.51
2024-03-10T07:38:05.782Z,22.69
2024-03-10T07:39:05.807Z,22.69
2024-03-10T07:40:05.882Z,22.83
2024-03-10T07:41:06.031Z,22.59
2024-03-10T07:42:06.039Z,22.56
2024-03-10T07:43:06.068Z,22.62
2024-03-10T07:44:06.140Z,22.80
2024-03-10T07:45:06.188Z,22.97
2024-03-10T07:46:06.223Z,22.92
2024-03-10T07:47:06.356Z,23.20
2024-03-10T07:48:06.371Z,23.23
2024-03-10T07:49:06.385Z,23.15
2024-03-10T07:50:06.516Z,23.17
2024-03-10T07:51:06.456Z,23.43
2024-03-10T07:52:06.498Z,23.32
2024-03-10T07:53:06.556Z,23.44
2024-03-10T07:54:06.543Z,23.17
2024-03-10T07:55:06.641Z,23.27
2024-03-10T07:56:06.684Z,23.31
2024-03-10T07:57:06.677Z,23.24
2024-03-10T07:58:06.766Z,23.13
2024-03-10T07:59:06.875Z,23.10
2024-03-10T08:00:06.877Z,23.18
2024-03-10T08:01:06.988Z,23.07
2024-03-10T08:02:06.998Z,23.19
2024-03-10T08:03:07.009Z,23.26
2024-03-10T08:04:07.029Z,23.36
2024-03-10T08:05:07.190Z,23.37
2024-03-10T08:06:07.228Z,23.38
2024-03-10T08:07:07.275Z,23.44
2024-03-10T08:08:07.350Z,23.50
2024-03-10T08:09:07.430Z,23.57
2024-03-10T08:10:07.457Z,23.65
2024-03-10T08:11:07.532Z,23.62
2024-03-10T08:12:07.686Z,23.71
2024-03-10T08:13:07.614Z,23.77
2024-03-10T08:14:07.743Z,23.73
2024-03-10T08:15:07.815Z,23.75
2024-03-10T08:16:07.831Z,23.84
2024-03-10T08:17:07.906Z,23.93
2024-03-10T08:18:08.031Z,23.89
2024-03-10T08:19:08.030Z,23.92
2024-03-10T08:20:08.187Z,23.97
2024-03-10T08:21:08.150Z,24.00
2024-03-10T08:22:08.262Z,24.01
2024-03-10T08:23:08.258Z,24.06
2024-03-10T08:24:08.300Z,24.04
2024-03-10T08:25:08.314Z,24.05
2024-03-10T08:26:08.401Z,24.11
2024-03-10T08:27:08.396Z,24.09
2024-03-10T08:28:08.397Z,24.08
2024-03-10T08:29:08.528Z,24.14
2024-03-10T08:30:08.440Z,24.14
2024-03-10T08:31:08.449Z,24.17
2024-03-10T08:32:08.488Z,24.15
2024-03-10T08:33:08.519Z,24.20
2024-03-10T08:34:08.500Z,24.20
2024-03-10T08:35:10.777Z,24.22
2024-03-10T08:36:08.550Z,24.24
2024-03-10T08:37:08.536Z,24.22
2024-03-10T08:38:08.540Z,24.22
2024-03-10T08:39:08.541Z,24.26
2024-03-10T08:40:08.562Z,24.22
2024-03-10T08:41:08.588Z,24.26
2024-03-10T08:42:08.523Z,24.22
2024-03-10T08:43:08.568Z,24.19
2024-03-10T08:44:08.613Z,24.26
2024-03-10T08:45:08.546Z,24.22
2024-03-10T08:46:08.533Z,24.25
2024-03-10T08:47:08.651Z,24.26
2024-03-10T08:48:08.610Z,24.26
2024-03-10T08:49:08.563Z,24.30
2024-03-10T08:50:08.612Z,24.27
2024-03-10T08:51:08.518Z,24.29
2024-03-10T08:52:08.571Z,24.40
2024-03-10T08:53:08.608Z,24.37
2024-03-10T08:54:08.526Z,24.26
2024-03-10T08:55:08.603Z,24.32
2024-03-10T08:56:08.582Z,24.24
2024-03-10T08:57:08.531Z,24.32
2024-03-10T08:58:08.557Z,24.26
2024-03-10T08:59:08.633Z,24.36
2024-03-10T09:00:08.579Z,24.35
2024-03-10T09:01:08.604Z,24.30
2024-03-10T09:02:08.665Z,24.29
2024-03-10T09:03:08.651Z,24.30
2024-03-10T09:04:08.655Z,24.29
2024-03-10T09:05:08.649Z,24.33
2024-03-10T09:06:08.617Z,24.36
2024-03-10T09:07:08.576Z,24.33
2024-03-10T09:08:08.611Z,24.35
2024-03-10T09:09:08.621Z,24.29
2024-03-10T09:10:08.796Z,24.32
2024-03-10T09:11:08.720Z,24.32
2024-03-10T09:12:08.718Z,24.33
2024-03-10T09:13:08.614Z,24.29
2024-03-10T09:14:08.595Z,24.33
2024-03-10T09:15:08.640Z,24.32
2024-03-10T09:16:08.634Z,24.32
2024-03-10T09:17:08.678Z,24.35
2024-03-10T09:18:08.605Z,24.36
2024-03-10T09:19:08.653Z,24.38
2024-03-10T09:20:08.751Z,24.37
2024-03-10T09:21:08.664Z,24.28
2024-03-10T09:22:08.616Z,24.23
2024-03-10T09:23:08.717Z,24.29
2024-03-10T09:24:08.610Z,24.27
2024-03-10T09:25:08.638Z,24.29
2024-03-10T09:26:08.674Z,24.22
2024-03-10T09:27:08.643Z,24.19
2024-03-10T09:28:08.606Z,24.24
2024-03-10T09:29:08.625Z,24.23
2024-03-10T09:30:08.676Z,24.28
2024-03-10T09:31:10.713Z,24.28
2024-03-10T09:32:08.739Z,24.32
2024-03-10T09:33:08.787Z,24.30
2024-03-10T09:34:08.821Z,24.28
2024-03-10T09:35:08.943Z,24.29
2024-03-10T09:36:08.916Z,24.30
2024-03-10T09:37:09.001Z,24.33
2024-03-10T09:38:09.046Z,24.35
2024-03-10T09:39:09.147Z,24.28
2024-03-10T09:40:09.153Z,24.32
2024-03-10T09:41:09.298Z,24.33
2024-03-10T09:42:09.315Z,24.31
2024-03-10T09:43:09.323Z,24.32
2024-03-10T09:44:09.455Z,24.31
2024-03-10T09:45:09.488Z,24.45
2024-03-10T09:46:09.539Z,24.40
2024-03-10T09:47:09.640Z,24.43
2024-03-10T09:48:09.669Z,24.49
2024-03-10T09:49:09.738Z,24.49
2024-03-10T09:50:09.873Z,24.46
2024-03-10T09:51:09.890Z,24.42
2024-03-10T09:52:09.950Z,24.44
2024-03-10T09:53:10.287Z,24.40
2024-03-10T09:54:10.063Z,24.50
2024-03-10T09:55:10.131Z,24.53
2024-03-10T09:56:10.255Z,24.49
2024-03-10T09:57:10.308Z,24.49
2024-03-10T09:58:10.383Z,24.51
2024-03-10T09:59:10.397Z,24.53
2024-03-10T10:00:10.465Z,24.57
2024-03-10T10:01:10.539Z,24.51
2024-03-10T10:02:10.622Z,24.54
2024-03-10T10:03:10.638Z,24.56
2024-03-10T10:04:10.717Z,24.57
2024-03-10T10:05:10.819Z,24.54
2024-03-10T10:06:10.850Z,24.56
2024-03-10T10:07:10.937Z,24.53
2024-03-10T10:08:11.043Z,24.49
2024-03-10T10:09:11.057Z,24.51
2024-03-10T10:10:11.148Z,24.51
2024-03-10T10:11:11.239Z,24.48
2024-03-10T10:12:11.349Z,24.55
2024-03-10T10:13:11.430Z,24.54
2024-03-10T10:14:11.541Z,24.55
2024-03-10T10:15:11.479Z,24.59
2024-03-10T10:16:11.614Z,24.53
2024-03-10T10:17:11.630Z,24.59
2024-03-10T10:18:11.735Z,24.59
2024-03-10T10:19:11.828Z,24.62
2024-03-10T10:20:11.818Z,24.59
2024-03-10T10:21:11.877Z,24.59
2024-03-10T10:22:11.946Z,24.59
2024-03-10T10:23:12.103Z,24.55
2024-03-10T10:24:12.062Z,24.61
2024-03-10T10:25:12.960Z,24.61
2024-03-10T10:26:12.286Z,24.63
2024-03-10T10:27:12.249Z,24.55
2024-03-10T10:28:12.373Z,24.61
2024-03-10T10:29:12.431Z,24.59
2024-03-10T10:30:12.513Z,24.60
2024-03-10T10:31:12.614Z,24.59
2024-03-10T10:32:12.695Z,24.60
2024-03-10T10:33:12.878Z,24.62
2024-03-10T10:34:12.738Z,24.61
2024-03-10T10:35:12.799Z,24.59
2024-03-10T10:36:12.904Z,24.64
2024-03-10T10:37:12.865Z,24.62
2024-03-10T10:38:13.153Z,24.63
2024-03-10T10:39:13.019Z,24.65
2024-03-10T10:40:13.208Z,24.65
2024-03-10T10:41:13.206Z,24.66
2024-03-10T10:42:21.736Z,24.67
2024-03-10T10:43:14.207Z,24.66
2024-03-10T10:44:13.304Z,24.66
2024-03-10T10:45:13.298Z,24.62
2024-03-10T10:46:13.269Z,24.59
2024-03-10T10:47:13.208Z,24.68
2024-03-10T10:48:13.267Z,24.64
2024-03-10T10:49:13.212Z,24.68
2024-03-10T10:50:13.347Z,24.67
2024-03-10T10:51:13.381Z,24.68
2024-03-10T10:52:13.408Z,24.70
2024-03-10T10:53:14.097Z,24.63
2024-03-10T10:54:13.974Z,24.58
2024-03-10T10:55:13.602Z,24.63
2024-03-10T10:56:13.682Z,24.55
2024-03-10T10:57:13.709Z,24.57
2024-03-10T10:58:13.774Z,24.57
2024-03-10T10:59:13.952Z,24.57
2024-03-10T11:00:13.910Z,24.61
2024-03-10T11:01:14.083Z,24.58
2024-03-10T11:02:14.174Z,24.57
2024-03-10T11:03:14.102Z,24.56
2024-03-10T11:04:14.212Z,24.56
2024-03-10T11:05:14.314Z,24.48
2024-03-10T11:06:14.331Z,24.54
2024-03-10T11:07:14.412Z,24.45
2024-03-10T11:08:14.537Z,24.46
2024-03-10T11:09:14.724Z,24.44
2024-03-10T11:10:14.576Z,24.42
2024-03-10T11:11:14.695Z,24.40
2024-03-10T11:12:14.806Z,24.42
2024-03-10T11:13:14.798Z,24.40
2024-03-10T11:14:15.061Z,24.43
2024-03-10T11:15:14.990Z,24.40
2024-03-10T11:16:15.026Z,24.40
2024-03-10T11:17:15.076Z,24.38
2024-03-10T11:18:15.095Z,24.35
2024-03-10T11:19:15.402Z,24.40
2024-03-10T11:20:15.304Z,24.37
2024-03-10T11:21:15.314Z,24.36
2024-03-10T11:22:15.361Z,24.34
2024-03-10T11:23:15.463Z,24.37
2024-03-10T11:24:15.490Z,24.34
2024-03-10T11:25:15.548Z,24.37
2024-03-10T11:26:15.680Z,24.30
2024-03-10T11:27:15.710Z,24.32
2024-03-10T11:28:15.757Z,24.31
2024-03-10T11:29:15.846Z,24.30
2024-03-10T11:30:15.885Z,24.31
2024-03-10T11:31:15.936Z,24.30
2024-03-10T11:32:16.062Z,24.26
2024-03-10T11:33:16.138Z,24.28
2024-03-10T11:34:16.127Z,24.31
2024-03-10T11:35:16.233Z,24.22
2024-03-10T11:36:16.232Z,24.25
2024-03-10T11:37:16.302Z,24.26
2024-03-10T11:38:16.391Z,24.28
2024-03-10T11:39:16.401Z,24.32
2024-03-10T11:40:16.463Z,24.32
2024-03-10T11:41:16.538Z,24.30
2024-03-10T11:42:16.619Z,24.28
2024-03-10T11:43:16.710Z,24.31
2024-03-10T11:44:16.709Z,24.34
2024-03-10T11:45:16.816Z,24.32
2024-03-10T11:46:16.855Z,24.30
2024-03-10T11:47:16.941Z,24.27
2024-03-10T11:48:17.012Z,24.31
2024-03-10T11:49:17.020Z,24.22
2024-03-10T11:50:17.134Z,24.28
2024-03-10T11:51:17.142Z,24.24
2024-03-10T11:52:17.209Z,24.24
2024-03-10T11:53:17.336Z,24.22
2024-03-10T11:54:17.333Z,24.24
2024-03-10T11:55:17.394Z,24.28
2024-03-10T11:56:17.568Z,24.23
2024-03-10T11:57:17.745Z,24.23
2024-03-10T11:58:17.613Z,24.26
2024-03-10T11:59:17.654Z,24.22
2024-03-10T12:00:17.776Z,24.26
2024-03-10T12:01:17.855Z,24.26
2024-03-10T12:02:17.875Z,24.22
2024-03-10T12:03:17.906Z,24.21
2024-03-10T12:04:17.964Z,24.20
2024-03-10T12:05:18.038Z,24.17
2024-03-10T12:06:18.116Z,24.22
2024-03-10T12:07:18.131Z,24.21
2024-03-10T12:08:18.291Z,24.22
2024-03-10T12:09:18.238Z,24.21
2024-03-10T12:10:18.357Z,24.16
2024-03-10T12:11:18.440Z,24.19
2024-03-10T12:12:18.500Z,24.16
2024-03-10T12:13:18.492Z,24.15
2024-03-10T12:14:18.696Z,24.17
2024-03-10T12:15:18.754Z,24.20
2024-03-10T12:16:18.698Z,24.23
2024-03-10T12:17:18.790Z,24.26
2024-03-10T12:18:18.830Z,24.20
2024-03-10T12:19:18.891Z,24.27
2024-03-10T12:20:19.080Z,24.19
2024-03-10T12:21:19.010Z,24.19
2024-03-10T12:22:19.047Z,24.26
2024-03-10T12:23:19.156Z,24.16
2024-03-10T12:24:19.219Z,24.20
2024-03-10T12:25:19.635Z,24.19
2024-03-10T12:26:19.317Z,24.16
2024-03-10T12:27:19.341Z,24.19
2024-03-10T12:28:19.440Z,24.17
2024-03-10T12:29:19.508Z,24.15
2024-03-10T12:30:19.620Z,24.09
2024-03-10T12:31:19.620Z,24.17
2024-03-10T12:32:19.755Z,24.15
2024-03-10T12:33:19.727Z,24.17
2024-03-10T12:34:19.815Z,24.23
2024-03-10T12:35:19.879Z,24.20
2024-03-10T12:36:19.906Z,24.22
2024-03-10T12:37:21.386Z,24.18
2024-03-10T12:38:20.054Z,24.14
2024-03-10T12:39:20.133Z,24.20
2024-03-10T12:40:20.190Z,24.25
2024-03-10T12:41:20.326Z,24.21
2024-03-10T12:42:20.308Z,24.21
2024-03-10T12:43:20.337Z,24.19
2024-03-10T12:44:20.422Z,24.14
2024-03-10T12:45:20.489Z,24.17
2024-03-10T12:46:20.505Z,24.15
2024-03-10T12:47:20.590Z,24.14
2024-03-10T12:48:20.653Z,24.08
2024-03-10T12:49:20.718Z,24.10
2024-03-10T12:50:20.773Z,24.14
2024-03-10T12:51:20.779Z,24.12
2024-03-10T12:52:20.851Z,24.11
2024-03-10T12:53:20.940Z,24.14